Georgetown, Florida
Current Conditions -  °F | °C
As of 10:55 AM on Thursday 27 Nov 2014 (Local Time) from K28J Reporting Station
Clear Clear  
Wind Chill: 61°   Ceiling: Unl
Heat Index: 61°   Visibility: 10mi
Dew Point: 39°   Wind: 13mph
Humidity: 45%   Direction: 330°NNW
Pressure: 30.27"   Gusts: 18mph
Location:  29.39°N, 81.64°W
Report Text: K28J 271555Z AUTO 33011G16KT 10SM CLR 16/04 A3027 RMK AO2
Loading
Personal Weather Stations






























Interactive Weather Map New forecast layout! Learn more

10-Day Weather Forecast

Advertisements
Track Severe Weather on mobile